sensor_id;sensor_type;location;lat;lon;timestamp;temperature;humidity
8778;DHT22;4425;50.872;4.712;2024-03-02T00:00:49;7.10;99.90
8778;DHT22;4425;50.872;4.712;2024-03-02T00:03:16;7.10;99.90
8778;DHT22;4425;50.872;4.712;2024-03-02T00:05:43;7.20;99.90
8778;DHT22;4425;50.872;4.712;2024-03-02T00:08:13;7.20;99.90
8778;DHT22;4425;50.872;4.712;2024-03-02T00:10:40;7.20;99.90
8778;DHT22;4425;50.872;4.712;2024-03-02T00:13:08;7.20;99.90
8778;DHT22;4425;50.872;4.712;2024-03-02T00:15:41;7.20;99.90
8778;DHT22;4425;50.872;4.712;2024-03-02T00:18:11;7.20;99.90
8778;DHT22;4425;50.872;4.712;2024-03-02T00:20:39;7.20;99.90
8778;DHT22;4425;50.872;4.712;2024-03-02T00:23:07;7.20;99.90
8778;DHT22;4425;50.872;4.712;2024-03-02T00:25:38;7.20;99.90
8778;DHT22;4425;50.872;4.712;2024-03-02T00:28:14;7.20;99.90
8778;DHT22;4425;50.872;4.712;2024-03-02T00:30:58;7.10;99.90
8778;DHT22;4425;50.872;4.712;2024-03-02T00:33:27;7.10;99.90
8778;DHT22;4425;50.872;4.712;2024-03-02T00:35:55;7.10;99.90
8778;DHT22;4425;50.872;4.712;2024-03-02T00:38:22;7.10;99.90
8778;DHT22;4425;50.872;4.712;2024-03-02T00:40:49;7.10;99.90
8778;DHT22;4425;50.872;4.712;2024-03-02T00:46:19;7.00;99.90
8778;DHT22;4425;50.872;4.712;2024-03-02T00:48:56;7.00;99.90
8778;DHT22;4425;50.872;4.712;2024-03-02T00:51:24;7.10;99.90
8778;DHT22;4425;50.872;4.712;2024-03-02T00:53:52;7.00;99.90
8778;DHT22;4425;50.872;4.712;2024-03-02T00:56:21;7.00;99.90
8778;DHT22;4425;50.872;4.712;2024-03-02T00:58:49;7.00;99.90
8778;DHT22;4425;50.872;4.712;2024-03-02T01:01:15;7.10;99.90
8778;DHT22;4425;50.872;4.712;2024-03-02T01:03:44;7.10;99.90
8778;DHT22;4425;50.872;4.712;2024-03-02T01:06:11;7.10;99.90
8778;DHT22;4425;50.872;4.712;2024-03-02T01:08:38;7.10;99.90
8778;DHT22;4425;50.872;4.712;2024-03-02T01:11:05;7.10;99.90
8778;DHT22;4425;50.872;4.712;2024-03-02T01:13:32;7.20;99.90
8778;DHT22;4425;50.872;4.712;2024-03-02T01:15:59;7.10;99.90
8778;DHT22;4425;50.872;4.712;2024-03-02T01:18:26;7.00;99.90
8778;DHT22;4425;50.872;4.712;2024-03-02T01:20:55;7.10;99.90
8778;DHT22;4425;50.872;4.712;2024-03-02T01:23:22;7.10;99.90
8778;DHT22;4425;50.872;4.712;2024-03-02T01:25:49;7.10;99.90
8778;DHT22;4425;50.872;4.712;2024-03-02T01:28:16;7.10;99.90
8778;DHT22;4425;50.872;4.712;2024-03-02T01:30:43;7.00;99.90
8778;DHT22;4425;50.872;4.712;2024-03-02T01:33:10;7.10;99.90
8778;DHT22;4425;50.872;4.712;2024-03-02T01:35:37;7.10;99.90
8778;DHT22;4425;50.872;4.712;2024-03-02T01:38:05;7.10;99.90
8778;DHT22;4425;50.872;4.712;2024-03-02T01:40:33;7.10;99.90
8778;DHT22;4425;50.872;4.712;2024-03-02T01:43:00;7.10;99.90
8778;DHT22;4425;50.872;4.712;2024-03-02T01:45:28;7.00;99.90
8778;DHT22;4425;50.872;4.712;2024-03-02T01:47:55;7.00;99.90
8778;DHT22;4425;50.872;4.712;2024-03-02T01:50:26;7.10;99.90
8778;DHT22;4425;50.872;4.712;2024-03-02T01:52:52;7.00;99.90
8778;DHT22;4425;50.872;4.712;2024-03-02T01:55:21;7.00;99.90
8778;DHT22;4425;50.872;4.712;2024-03-02T01:57:48;7.00;99.90
8778;DHT22;4425;50.872;4.712;2024-03-02T02:00:16;7.20;99.90
8778;DHT22;4425;50.872;4.712;2024-03-02T02:02:44;7.10;99.90
8778;DHT22;4425;50.872;4.712;2024-03-02T02:05:11;7.10;99.90
8778;DHT22;4425;50.872;4.712;2024-03-02T02:07:38;7.00;99.90
8778;DHT22;4425;50.872;4.712;2024-03-02T02:10:06;7.00;99.90
8778;DHT22;4425;50.872;4.712;2024-03-02T02:12:35;7.10;99.90
8778;DHT22;4425;50.872;4.712;2024-03-02T02:15:02;7.00;99.90
8778;DHT22;4425;50.872;4.712;2024-03-02T02:17:29;7.10;99.90
8778;DHT22;4425;50.872;4.712;2024-03-02T02:19:56;7.00;99.90
8778;DHT22;4425;50.872;4.712;2024-03-02T02:22:24;7.00;99.90
8778;DHT22;4425;50.872;4.712;2024-03-02T02:24:52;7.10;99.90
8778;DHT22;4425;50.872;4.712;2024-03-02T02:27:19;7.10;99.90
8778;DHT22;4425;50.872;4.712;2024-03-02T02:29:46;7.10;99.90
8778;DHT22;4425;50.872;4.712;2024-03-02T02:32:12;7.10;99.90
8778;DHT22;4425;50.872;4.712;2024-03-02T02:34:39;7.20;99.90
8778;DHT22;4425;50.872;4.712;2024-03-02T02:37:06;7.10;99.90
8778;DHT22;4425;50.872;4.712;2024-03-02T02:39:35;7.00;99.90
8778;DHT22;4425;50.872;4.712;2024-03-02T02:42:01;7.00;99.90
8778;DHT22;4425;50.872;4.712;2024-03-02T02:44:28;7.00;99.90
8778;DHT22;4425;50.872;4.712;2024-03-02T02:46:55;7.00;99.90
8778;DHT22;4425;50.872;4.712;2024-03-02T02:49:22;6.90;99.90
8778;DHT22;4425;50.872;4.712;2024-03-02T02:51:49;6.90;99.90
8778;DHT22;4425;50.872;4.712;2024-03-02T02:54:16;6.90;99.90
8778;DHT22;4425;50.872;4.712;2024-03-02T02:56:44;6.80;99.90
8778;DHT22;4425;50.872;4.712;2024-03-02T02:59:11;6.80;99.90
8778;DHT22;4425;50.872;4.712;2024-03-02T03:01:38;6.80;99.90
8778;DHT22;4425;50.872;4.712;2024-03-02T03:04:05;6.70;99.90
8778;DHT22;4425;50.872;4.712;2024-03-02T03:06:32;6.80;99.90
8778;DHT22;4425;50.872;4.712;2024-03-02T03:08:59;6.80;99.90
8778;DHT22;4425;50.872;4.712;2024-03-02T03:11:26;6.60;99.90
8778;DHT22;4425;50.872;4.712;2024-03-02T03:13:54;6.60;99.90
8778;DHT22;4425;50.872;4.712;2024-03-02T03:16:21;6.60;99.90
8778;DHT22;4425;50.872;4.712;2024-03-02T03:18:48;6.60;99.90
8778;DHT22;4425;50.872;4.712;2024-03-02T03:21:17;6.50;99.90
8778;DHT22;4425;50.872;4.712;2024-03-02T03:23:44;6.50;99.90
8778;DHT22;4425;50.872;4.712;2024-03-02T03:26:11;6.50;99.90
8778;DHT22;4425;50.872;4.712;2024-03-02T03:28:38;6.40;99.90
8778;DHT22;4425;50.872;4.712;2024-03-02T03:31:06;6.40;99.90
8778;DHT22;4425;50.872;4.712;2024-03-02T03:33:33;6.40;99.90
8778;DHT22;4425;50.872;4.712;2024-03-02T03:36:01;6.40;99.90
8778;DHT22;4425;50.872;4.712;2024-03-02T03:38:29;6.40;99.90
8778;DHT22;4425;50.872;4.712;2024-03-02T03:40:55;6.50;99.90
8778;DHT22;4425;50.872;4.712;2024-03-02T03:43:23;6.30;99.90
8778;DHT22;4425;50.872;4.712;2024-03-02T03:45:50;6.30;99.90
8778;DHT22;4425;50.872;4.712;2024-03-02T03:48:18;6.30;99.90
8778;DHT22;4425;50.872;4.712;2024-03-02T03:50:45;6.30;99.90
8778;DHT22;4425;50.872;4.712;2024-03-02T03:53:12;6.40;99.90
8778;DHT22;4425;50.872;4.712;2024-03-02T03:55:40;6.30;99.90
8778;DHT22;4425;50.872;4.712;2024-03-02T03:58:07;6.30;99.90
8778;DHT22;4425;50.872;4.712;2024-03-02T04:00:34;6.30;99.90
8778;DHT22;4425;50.872;4.712;2024-03-02T04:03:01;6.20;99.90
8778;DHT22;4425;50.872;4.712;2024-03-02T04:05:29;6.30;99.90
8778;DHT22;4425;50.872;4.712;2024-03-02T04:07:56;6.30;99.90
8778;DHT22;4425;50.872;4.712;2024-03-02T04:10:23;6.20;99.90
8778;DHT22;4425;50.872;4.712;2024-03-02T04:12:50;6.20;99.90
8778;DHT22;4425;50.872;4.712;2024-03-02T04:15:17;6.20;99.90
8778;DHT22;4425;50.872;4.712;2024-03-02T04:17:45;6.10;99.90
8778;DHT22;4425;50.872;4.712;2024-03-02T04:20:12;6.30;99.90
8778;DHT22;4425;50.872;4.712;2024-03-02T04:22:40;6.20;99.90
8778;DHT22;4425;50.872;4.712;2024-03-02T04:25:08;6.20;99.90
8778;DHT22;4425;50.872;4.712;2024-03-02T04:27:35;6.10;99.90
8778;DHT22;4425;50.872;4.712;2024-03-02T04:30:02;6.10;99.90
8778;DHT22;4425;50.872;4.712;2024-03-02T04:32:30;6.10;99.90
8778;DHT22;4425;50.872;4.712;2024-03-02T04:34:57;6.00;99.90
8778;DHT22;4425;50.872;4.712;2024-03-02T04:37:24;6.10;99.90
8778;DHT22;4425;50.872;4.712;2024-03-02T04:39:52;6.00;99.90
8778;DHT22;4425;50.872;4.712;2024-03-02T04:42:19;6.00;99.90
8778;DHT22;4425;50.872;4.712;2024-03-02T04:44:46;6.00;99.90
8778;DHT22;4425;50.872;4.712;2024-03-02T04:47:13;6.00;99.90
8778;DHT22;4425;50.872;4.712;2024-03-02T04:49:40;5.90;99.90
8778;DHT22;4425;50.872;4.712;2024-03-02T04:52:07;5.90;99.90
8778;DHT22;4425;50.872;4.712;2024-03-02T04:54:34;6.00;99.90
8778;DHT22;4425;50.872;4.712;2024-03-02T04:57:22;5.90;99.90
8778;DHT22;4425;50.872;4.712;2024-03-02T04:59:49;5.90;99.90
8778;DHT22;4425;50.872;4.712;2024-03-02T05:02:16;5.90;99.90
8778;DHT22;4425;50.872;4.712;2024-03-02T05:04:43;5.90;99.90
8778;DHT22;4425;50.872;4.712;2024-03-02T05:07:10;5.90;99.90
8778;DHT22;4425;50.872;4.712;2024-03-02T05:09:37;5.90;99.90
8778;DHT22;4425;50.872;4.712;2024-03-02T05:12:05;6.00;99.90
8778;DHT22;4425;50.872;4.712;2024-03-02T05:15:08;6.00;99.90
8778;DHT22;4425;50.872;4.712;2024-03-02T05:17:35;5.90;99.90
8778;DHT22;4425;50.872;4.712;2024-03-02T05:20:03;5.90;99.90
8778;DHT22;4425;50.872;4.712;2024-03-02T05:22:30;5.90;99.90
8778;DHT22;4425;50.872;4.712;2024-03-02T05:24:56;6.10;99.90
8778;DHT22;4425;50.872;4.712;2024-03-02T05:27:24;6.00;99.90
8778;DHT22;4425;50.872;4.712;2024-03-02T05:29:51;6.20;99.90
8778;DHT22;4425;50.872;4.712;2024-03-02T05:32:19;6.00;99.90
8778;DHT22;4425;50.872;4.712;2024-03-02T05:34:46;6.00;99.90
8778;DHT22;4425;50.872;4.712;2024-03-02T05:37:13;6.00;99.90
8778;DHT22;4425;50.872;4.712;2024-03-02T05:39:40;6.00;99.90
8778;DHT22;4425;50.872;4.712;2024-03-02T05:42:08;6.00;99.90
8778;DHT22;4425;50.872;4.712;2024-03-02T05:44:35;6.00;99.90
8778;DHT22;4425;50.872;4.712;2024-03-02T05:47:03;6.00;99.90
8778;DHT22;4425;50.872;4.712;2024-03-02T05:49:32;6.00;99.90
8778;DHT22;4425;50.872;4.712;2024-03-02T05:51:58;6.00;99.90
8778;DHT22;4425;50.872;4.712;2024-03-02T05:54:25;6.00;99.90
8778;DHT22;4425;50.872;4.712;2024-03-02T05:56:52;6.00;99.90
8778;DHT22;4425;50.872;4.712;2024-03-02T05:59:19;6.00;99.90
8778;DHT22;4425;50.872;4.712;2024-03-02T06:01:46;6.00;99.90
8778;DHT22;4425;50.872;4.712;2024-03-02T06:04:14;6.00;99.90
8778;DHT22;4425;50.872;4.712;2024-03-02T06:06:42;6.00;99.90
8778;DHT22;4425;50.872;4.712;2024-03-02T06:09:10;5.90;99.90
8778;DHT22;4425;50.872;4.712;2024-03-02T06:11:39;5.90;99.90
8778;DHT22;4425;50.872;4.712;2024-03-02T06:14:08;5.90;99.90
8778;DHT22;4425;50.872;4.712;2024-03-02T06:16:35;5.90;99.90
8778;DHT22;4425;50.872;4.712;2024-03-02T06:19:02;6.10;99.90
8778;DHT22;4425;50.872;4.712;2024-03-02T06:21:29;5.90;99.90
8778;DHT22;4425;50.872;4.712;2024-03-02T06:23:57;6.00;99.90
8778;DHT22;4425;50.872;4.712;2024-03-02T06:26:24;5.90;99.90
8778;DHT22;4425;50.872;4.712;2024-03-02T06:28:51;5.90;99.90
8778;DHT22;4425;50.872;4.712;2024-03-02T06:31:17;5.90;99.90
8778;DHT22;4425;50.872;4.712;2024-03-02T06:33:44;6.00;99.90
8778;DHT22;4425;50.872;4.712;2024-03-02T06:36:11;5.90;99.90
8778;DHT22;4425;50.872;4.712;2024-03-02T06:38:38;5.90;99.90
8778;DHT22;4425;50.872;4.712;2024-03-02T06:41:07;5.90;99.90
8778;DHT22;4425;50.872;4.712;2024-03-02T06:43:34;5.90;99.90
8778;DHT22;4425;50.872;4.712;2024-03-02T06:46:01;6.00;99.90
8778;DHT22;4425;50.872;4.712;2024-03-02T06:48:28;6.00;99.90
8778;DHT22;4425;50.872;4.712;2024-03-02T06:50:55;6.10;99.90
8778;DHT22;4425;50.872;4.712;2024-03-02T06:53:23;6.00;99.90
8778;DHT22;4425;50.872;4.712;2024-03-02T06:55:50;6.00;99.90
8778;DHT22;4425;50.872;4.712;2024-03-02T06:58:18;6.10;99.90
8778;DHT22;4425;50.872;4.712;2024-03-02T07:00:45;6.10;99.90
8778;DHT22;4425;50.872;4.712;2024-03-02T07:03:13;6.10;99.90
8778;DHT22;4425;50.872;4.712;2024-03-02T07:05:40;6.10;99.90
8778;DHT22;4425;50.872;4.712;2024-03-02T07:08:07;6.10;99.90
8778;DHT22;4425;50.872;4.712;2024-03-02T07:10:34;6.10;99.90
8778;DHT22;4425;50.872;4.712;2024-03-02T07:13:01;6.10;99.90
8778;DHT22;4425;50.872;4.712;2024-03-02T07:15:29;6.00;99.90
8778;DHT22;4425;50.872;4.712;2024-03-02T07:18:09;6.10;99.90
8778;DHT22;4425;50.872;4.712;2024-03-02T07:20:36;6.10;99.90
8778;DHT22;4425;50.872;4.712;2024-03-02T07:23:04;6.30;99.90
8778;DHT22;4425;50.872;4.712;2024-03-02T07:25:32;6.10;99.90
8778;DHT22;4425;50.872;4.712;2024-03-02T07:27:59;6.20;99.90
8778;DHT22;4425;50.872;4.712;2024-03-02T07:30:26;6.20;99.90
8778;DHT22;4425;50.872;4.712;2024-03-02T07:32:54;6.20;99.90
8778;DHT22;4425;50.872;4.712;2024-03-02T07:35:21;6.30;99.90
8778;DHT22;4425;50.872;4.712;2024-03-02T07:37:52;6.30;99.90
8778;DHT22;4425;50.872;4.712;2024-03-02T07:40:19;6.30;99.90
8778;DHT22;4425;50.872;4.712;2024-03-02T07:42:46;6.30;99.90
8778;DHT22;4425;50.872;4.712;2024-03-02T07:45:15;6.40;99.90
8778;DHT22;4425;50.872;4.712;2024-03-02T07:47:42;6.40;99.90
8778;DHT22;4425;50.872;4.712;2024-03-02T07:50:12;6.50;99.90
8778;DHT22;4425;50.872;4.712;2024-03-02T07:52:40;7.10;99.90
8778;DHT22;4425;50.872;4.712;2024-03-02T07:55:08;8.00;99.90
8778;DHT22;4425;50.872;4.712;2024-03-02T07:57:34;8.80;99.90
8778;DHT22;4425;50.872;4.712;2024-03-02T08:00:02;9.70;99.90
8778;DHT22;4425;50.872;4.712;2024-03-02T08:02:29;10.60;99.90
8778;DHT22;4425;50.872;4.712;2024-03-02T08:04:56;11.20;99.90
8778;DHT22;4425;50.872;4.712;2024-03-02T08:07:24;12.00;99.90
8778;DHT22;4425;50.872;4.712;2024-03-02T08:09:51;12.50;99.90
8778;DHT22;4425;50.872;4.712;2024-03-02T08:12:18;13.00;99.90
8778;DHT22;4425;50.872;4.712;2024-03-02T08:14:45;13.20;99.90
8778;DHT22;4425;50.872;4.712;2024-03-02T08:17:12;13.70;99.90
8778;DHT22;4425;50.872;4.712;2024-03-02T08:19:39;14.00;99.90
8778;DHT22;4425;50.872;4.712;2024-03-02T08:22:05;13.70;99.90
8778;DHT22;4425;50.872;4.712;2024-03-02T08:24:34;13.20;99.90
8778;DHT22;4425;50.872;4.712;2024-03-02T08:27:01;12.90;99.90
8778;DHT22;4425;50.872;4.712;2024-03-02T08:29:29;12.40;99.90
8778;DHT22;4425;50.872;4.712;2024-03-02T08:31:55;11.70;99.90
8778;DHT22;4425;50.872;4.712;2024-03-02T08:34:22;10.90;99.90
8778;DHT22;4425;50.872;4.712;2024-03-02T08:36:49;10.10;99.90
8778;DHT22;4425;50.872;4.712;2024-03-02T08:39:17;9.70;99.90
8778;DHT22;4425;50.872;4.712;2024-03-02T08:41:47;9.20;99.90
8778;DHT22;4425;50.872;4.712;2024-03-02T08:44:14;8.90;99.90
8778;DHT22;4425;50.872;4.712;2024-03-02T08:46:41;8.70;99.90
8778;DHT22;4425;50.872;4.712;2024-03-02T08:49:09;8.60;99.90
8778;DHT22;4425;50.872;4.712;2024-03-02T08:51:35;8.60;99.90
8778;DHT22;4425;50.872;4.712;2024-03-02T08:54:02;8.50;99.90
8778;DHT22;4425;50.872;4.712;2024-03-02T08:56:30;8.60;99.90
8778;DHT22;4425;50.872;4.712;2024-03-02T08:58:59;8.60;99.90
8778;DHT22;4425;50.872;4.712;2024-03-02T09:01:26;8.70;99.90
8778;DHT22;4425;50.872;4.712;2024-03-02T09:03:52;8.70;99.90
8778;DHT22;4425;50.872;4.712;2024-03-02T09:06:19;8.70;99.90
8778;DHT22;4425;50.872;4.712;2024-03-02T09:08:47;8.70;99.90
8778;DHT22;4425;50.872;4.712;2024-03-02T09:11:15;8.80;99.90
8778;DHT22;4425;50.872;4.712;2024-03-02T09:13:42;8.80;99.90
8778;DHT22;4425;50.872;4.712;2024-03-02T09:16:11;8.90;99.90
8778;DHT22;4425;50.872;4.712;2024-03-02T09:18:38;8.90;99.90
8778;DHT22;4425;50.872;4.712;2024-03-02T09:21:04;9.00;99.90
8778;DHT22;4425;50.872;4.712;2024-03-02T09:23:32;8.90;99.90
8778;DHT22;4425;50.872;4.712;2024-03-02T09:25:59;9.10;99.90
8778;DHT22;4425;50.872;4.712;2024-03-02T09:28:26;9.10;99.90
8778;DHT22;4425;50.872;4.712;2024-03-02T09:30:53;9.20;99.90
8778;DHT22;4425;50.872;4.712;2024-03-02T09:33:21;9.30;99.90
8778;DHT22;4425;50.872;4.712;2024-03-02T09:35:48;9.20;99.90
8778;DHT22;4425;50.872;4.712;2024-03-02T09:38:15;9.10;99.90
8778;DHT22;4425;50.872;4.712;2024-03-02T09:40:42;9.00;99.90
8778;DHT22;4425;50.872;4.712;2024-03-02T09:43:10;9.00;99.90
8778;DHT22;4425;50.872;4.712;2024-03-02T09:45:37;9.00;99.90
8778;DHT22;4425;50.872;4.712;2024-03-02T09:48:05;9.00;99.90
8778;DHT22;4425;50.872;4.712;2024-03-02T09:50:33;9.20;99.90
8778;DHT22;4425;50.872;4.712;2024-03-02T09:53:00;9.30;99.90
8778;DHT22;4425;50.872;4.712;2024-03-02T09:55:27;9.40;99.90
8778;DHT22;4425;50.872;4.712;2024-03-02T09:57:54;9.40;99.90
8778;DHT22;4425;50.872;4.712;2024-03-02T10:00:21;9.50;99.90
8778;DHT22;4425;50.872;4.712;2024-03-02T10:02:48;9.60;99.90
8778;DHT22;4425;50.872;4.712;2024-03-02T10:05:24;9.70;99.90
8778;DHT22;4425;50.872;4.712;2024-03-02T10:07:58;9.80;99.90
8778;DHT22;4425;50.872;4.712;2024-03-02T10:10:34;9.90;99.90
8778;DHT22;4425;50.872;4.712;2024-03-02T10:13:04;9.90;99.90
8778;DHT22;4425;50.872;4.712;2024-03-02T10:15:31;10.00;99.90
8778;DHT22;4425;50.872;4.712;2024-03-02T10:17:58;10.00;99.90
8778;DHT22;4425;50.872;4.712;2024-03-02T10:20:26;10.00;99.90
8778;DHT22;4425;50.872;4.712;2024-03-02T10:22:54;10.00;99.90
8778;DHT22;4425;50.872;4.712;2024-03-02T10:25:33;10.10;99.90
8778;DHT22;4425;50.872;4.712;2024-03-02T10:28:00;10.10;99.90
8778;DHT22;4425;50.872;4.712;2024-03-02T10:30:27;10.10;99.90
8778;DHT22;4425;50.872;4.712;2024-03-02T10:32:55;10.20;99.90
8778;DHT22;4425;50.872;4.712;2024-03-02T10:35:22;10.30;99.90
8778;DHT22;4425;50.872;4.712;2024-03-02T10:37:52;10.30;99.90
8778;DHT22;4425;50.872;4.712;2024-03-02T10:40:21;10.40;99.90
8778;DHT22;4425;50.872;4.712;2024-03-02T10:42:50;10.40;99.90
8778;DHT22;4425;50.872;4.712;2024-03-02T10:45:19;10.70;99.90
8778;DHT22;4425;50.872;4.712;2024-03-02T10:47:48;10.50;99.90
8778;DHT22;4425;50.872;4.712;2024-03-02T10:50:15;10.50;99.90
8778;DHT22;4425;50.872;4.712;2024-03-02T10:52:42;10.60;99.90
8778;DHT22;4425;50.872;4.712;2024-03-02T10:55:09;10.70;99.90
8778;DHT22;4425;50.872;4.712;2024-03-02T10:57:42;10.90;99.90
8778;DHT22;4425;50.872;4.712;2024-03-02T11:00:13;10.90;99.90
8778;DHT22;4425;50.872;4.712;2024-03-02T11:02:49;11.00;99.90
8778;DHT22;4425;50.872;4.712;2024-03-02T11:05:23;10.90;99.90
8778;DHT22;4425;50.872;4.712;2024-03-02T11:07:56;10.90;99.90
8778;DHT22;4425;50.872;4.712;2024-03-02T11:10:23;10.90;99.90
8778;DHT22;4425;50.872;4.712;2024-03-02T11:12:56;10.90;99.90
8778;DHT22;4425;50.872;4.712;2024-03-02T11:15:27;11.00;99.90
8778;DHT22;4425;50.872;4.712;2024-03-02T11:17:55;11.20;99.90
8778;DHT22;4425;50.872;4.712;2024-03-02T11:20:22;11.20;99.90
8778;DHT22;4425;50.872;4.712;2024-03-02T11:22:50;11.40;99.90
8778;DHT22;4425;50.872;4.712;2024-03-02T11:25:24;11.60;99.90
8778;DHT22;4425;50.872;4.712;2024-03-02T11:28:02;11.80;99.90
8778;DHT22;4425;50.872;4.712;2024-03-02T11:30:51;11.60;99.90
8778;DHT22;4425;50.872;4.712;2024-03-02T11:33:25;11.70;99.90
8778;DHT22;4425;50.872;4.712;2024-03-02T11:35:56;11.80;99.90
8778;DHT22;4425;50.872;4.712;2024-03-02T11:38:28;11.80;99.90
8778;DHT22;4425;50.872;4.712;2024-03-02T11:40:55;11.90;99.90
8778;DHT22;4425;50.872;4.712;2024-03-02T11:43:22;12.00;99.90
8778;DHT22;4425;50.872;4.712;2024-03-02T11:45:56;12.20;99.90
8778;DHT22;4425;50.872;4.712;2024-03-02T11:48:24;12.10;99.90
8778;DHT22;4425;50.872;4.712;2024-03-02T11:50:52;12.10;99.90
8778;DHT22;4425;50.872;4.712;2024-03-02T11:53:20;12.10;99.90
8778;DHT22;4425;50.872;4.712;2024-03-02T11:55:47;12.10;99.90
8778;DHT22;4425;50.872;4.712;2024-03-02T11:58:16;12.20;99.90
8778;DHT22;4425;50.872;4.712;2024-03-02T12:00:46;12.10;99.90
8778;DHT22;4425;50.872;4.712;2024-03-02T12:03:14;12.10;99.90
8778;DHT22;4425;50.872;4.712;2024-03-02T12:05:42;12.20;99.90
8778;DHT22;4425;50.872;4.712;2024-03-02T12:08:10;12.30;99.90
8778;DHT22;4425;50.872;4.712;2024-03-02T12:10:37;12.50;99.90
8778;DHT22;4425;50.872;4.712;2024-03-02T12:13:05;12.60;99.90
8778;DHT22;4425;50.872;4.712;2024-03-02T12:15:34;12.70;99.90
8778;DHT22;4425;50.872;4.712;2024-03-02T12:18:03;12.60;99.90
8778;DHT22;4425;50.872;4.712;2024-03-02T12:20:32;12.50;99.90
8778;DHT22;4425;50.872;4.712;2024-03-02T12:23:01;12.60;99.90
8778;DHT22;4425;50.872;4.712;2024-03-02T12:25:30;12.60;99.90
8778;DHT22;4425;50.872;4.712;2024-03-02T12:28:00;12.60;99.90
8778;DHT22;4425;50.872;4.712;2024-03-02T12:30:30;12.60;99.90
8778;DHT22;4425;50.872;4.712;2024-03-02T12:32:57;12.60;99.90
8778;DHT22;4425;50.872;4.712;2024-03-02T12:35:25;12.60;99.90
8778;DHT22;4425;50.872;4.712;2024-03-02T12:37:54;12.50;99.90
8778;DHT22;4425;50.872;4.712;2024-03-02T12:40:21;12.40;99.90
8778;DHT22;4425;50.872;4.712;2024-03-02T12:42:49;12.30;99.90
8778;DHT22;4425;50.872;4.712;2024-03-02T12:45:16;12.40;99.90
8778;DHT22;4425;50.872;4.712;2024-03-02T12:47:49;12.50;99.90
8778;DHT22;4425;50.872;4.712;2024-03-02T12:50:16;12.50;99.90
8778;DHT22;4425;50.872;4.712;2024-03-02T12:52:43;12.60;99.90
8778;DHT22;4425;50.872;4.712;2024-03-02T12:55:11;12.70;99.90
8778;DHT22;4425;50.872;4.712;2024-03-02T12:57:39;12.60;99.90
8778;DHT22;4425;50.872;4.712;2024-03-02T13:00:07;12.70;99.90
8778;DHT22;4425;50.872;4.712;2024-03-02T13:02:36;12.50;99.90
8778;DHT22;4425;50.872;4.712;2024-03-02T13:05:03;12.60;99.90
8778;DHT22;4425;50.872;4.712;2024-03-02T13:07:36;12.80;99.90
8778;DHT22;4425;50.872;4.712;2024-03-02T13:10:04;12.80;99.90
8778;DHT22;4425;50.872;4.712;2024-03-02T13:12:33;13.00;99.90
8778;DHT22;4425;50.872;4.712;2024-03-02T13:15:00;13.10;99.90
8778;DHT22;4425;50.872;4.712;2024-03-02T13:17:28;13.20;99.90
8778;DHT22;4425;50.872;4.712;2024-03-02T13:19:56;13.40;99.90
8778;DHT22;4425;50.872;4.712;2024-03-02T13:22:23;13.40;99.90
8778;DHT22;4425;50.872;4.712;2024-03-02T13:24:51;13.40;99.90
8778;DHT22;4425;50.872;4.712;2024-03-02T13:27:20;13.30;99.90
8778;DHT22;4425;50.872;4.712;2024-03-02T13:29:49;13.10;99.90
8778;DHT22;4425;50.872;4.712;2024-03-02T13:32:16;13.00;99.90
8778;DHT22;4425;50.872;4.712;2024-03-02T13:34:46;13.30;99.90
8778;DHT22;4425;50.872;4.712;2024-03-02T13:37:15;13.30;99.90
8778;DHT22;4425;50.872;4.712;2024-03-02T13:39:42;13.30;99.90
8778;DHT22;4425;50.872;4.712;2024-03-02T13:42:09;13.30;99.90
8778;DHT22;4425;50.872;4.712;2024-03-02T13:44:39;13.20;99.90
8778;DHT22;4425;50.872;4.712;2024-03-02T13:47:07;13.20;99.90
8778;DHT22;4425;50.872;4.712;2024-03-02T13:49:34;13.10;99.90
8778;DHT22;4425;50.872;4.712;2024-03-02T13:52:03;13.00;99.90
8778;DHT22;4425;50.872;4.712;2024-03-02T13:54:37;13.00;99.90
8778;DHT22;4425;50.872;4.712;2024-03-02T13:57:05;13.10;99.90
8778;DHT22;4425;50.872;4.712;2024-03-02T13:59:32;13.20;99.90
8778;DHT22;4425;50.872;4.712;2024-03-02T14:01:59;13.10;99.90
8778;DHT22;4425;50.872;4.712;2024-03-02T14:04:28;13.10;99.90
8778;DHT22;4425;50.872;4.712;2024-03-02T14:06:55;13.00;99.90
8778;DHT22;4425;50.872;4.712;2024-03-02T14:09:29;13.00;99.90
8778;DHT22;4425;50.872;4.712;2024-03-02T14:11:56;13.00;99.90
8778;DHT22;4425;50.872;4.712;2024-03-02T14:14:23;13.00;99.90
8778;DHT22;4425;50.872;4.712;2024-03-02T14:16:50;13.10;99.90
8778;DHT22;4425;50.872;4.712;2024-03-02T14:19:20;13.20;99.90
8778;DHT22;4425;50.872;4.712;2024-03-02T14:21:48;13.30;99.90
8778;DHT22;4425;50.872;4.712;2024-03-02T14:24:15;13.30;99.90
8778;DHT22;4425;50.872;4.712;2024-03-02T14:26:42;13.30;99.90
8778;DHT22;4425;50.872;4.712;2024-03-02T14:29:09;13.20;99.90
8778;DHT22;4425;50.872;4.712;2024-03-02T14:31:37;13.30;99.90
8778;DHT22;4425;50.872;4.712;2024-03-02T14:34:04;13.20;99.90
8778;DHT22;4425;50.872;4.712;2024-03-02T14:36:31;13.10;99.90
8778;DHT22;4425;50.872;4.712;2024-03-02T14:39:00;13.20;99.90
8778;DHT22;4425;50.872;4.712;2024-03-02T14:41:29;13.10;99.90
8778;DHT22;4425;50.872;4.712;2024-03-02T14:43:56;13.00;99.90
8778;DHT22;4425;50.872;4.712;2024-03-02T14:46:24;13.10;99.90
8778;DHT22;4425;50.872;4.712;2024-03-02T14:48:51;13.20;99.90
8778;DHT22;4425;50.872;4.712;2024-03-02T14:51:18;13.20;99.90
8778;DHT22;4425;50.872;4.712;2024-03-02T14:53:45;13.20;99.90
8778;DHT22;4425;50.872;4.712;2024-03-02T14:56:13;13.20;99.90
8778;DHT22;4425;50.872;4.712;2024-03-02T14:58:40;13.20;99.90
8778;DHT22;4425;50.872;4.712;2024-03-02T15:01:07;13.20;99.90
8778;DHT22;4425;50.872;4.712;2024-03-02T15:03:35;13.20;99.90
8778;DHT22;4425;50.872;4.712;2024-03-02T15:06:02;13.10;99.90
8778;DHT22;4425;50.872;4.712;2024-03-02T15:08:30;13.10;99.90
8778;DHT22;4425;50.872;4.712;2024-03-02T15:10:58;13.00;99.90
8778;DHT22;4425;50.872;4.712;2024-03-02T15:13:27;13.00;99.90
8778;DHT22;4425;50.872;4.712;2024-03-02T15:15:54;13.00;99.90
8778;DHT22;4425;50.872;4.712;2024-03-02T15:18:21;12.90;99.90
8778;DHT22;4425;50.872;4.712;2024-03-02T15:20:49;12.80;99.90
8778;DHT22;4425;50.872;4.712;2024-03-02T15:23:21;12.80;99.90
8778;DHT22;4425;50.872;4.712;2024-03-02T15:25:49;12.80;99.90
8778;DHT22;4425;50.872;4.712;2024-03-02T15:28:16;12.70;99.90
8778;DHT22;4425;50.872;4.712;2024-03-02T15:30:45;12.70;99.90
8778;DHT22;4425;50.872;4.712;2024-03-02T15:33:12;12.70;99.90
8778;DHT22;4425;50.872;4.712;2024-03-02T15:35:39;12.70;99.90
8778;DHT22;4425;50.872;4.712;2024-03-02T15:38:06;12.70;99.90
8778;DHT22;4425;50.872;4.712;2024-03-02T15:40:37;12.70;99.90
8778;DHT22;4425;50.872;4.712;2024-03-02T15:43:04;12.70;99.90
8778;DHT22;4425;50.872;4.712;2024-03-02T15:45:31;12.60;99.90
8778;DHT22;4425;50.872;4.712;2024-03-02T15:48:00;12.60;99.90
8778;DHT22;4425;50.872;4.712;2024-03-02T15:50:27;12.60;99.90
8778;DHT22;4425;50.872;4.712;2024-03-02T15:52:54;12.70;99.90
8778;DHT22;4425;50.872;4.712;2024-03-02T15:55:27;12.60;99.90
8778;DHT22;4425;50.872;4.712;2024-03-02T15:57:54;12.60;99.90
8778;DHT22;4425;50.872;4.712;2024-03-02T16:00:21;12.60;99.90
8778;DHT22;4425;50.872;4.712;2024-03-02T16:02:47;12.50;99.90
8778;DHT22;4425;50.872;4.712;2024-03-02T16:05:16;12.60;99.90
8778;DHT22;4425;50.872;4.712;2024-03-02T16:07:45;12.50;99.90
8778;DHT22;4425;50.872;4.712;2024-03-02T16:10:12;12.50;99.90
8778;DHT22;4425;50.872;4.712;2024-03-02T16:12:39;12.40;99.90
8778;DHT22;4425;50.872;4.712;2024-03-02T16:15:06;12.40;99.90
8778;DHT22;4425;50.872;4.712;2024-03-02T16:17:34;12.40;99.90
8778;DHT22;4425;50.872;4.712;2024-03-02T16:20:01;12.30;99.90